Flight Track Log - Related Links

Times and Time Zones

All times are in EDT time to prevent confusion due to time zone crossing. See the ASQ5988 flight status page for this flight to view local times or setup timezone preferences in your user account.

Time Position Orientation Groundspeed Altitude Reporting Facility
EDT Latitude Longitude Course Direction KTS MPH feet Rate Location/Type
Fri 07:50:04 PM 39.8889 -84.2867 257° West 170 196 3,000  Level Indianapolis Center
Fri 07:50:33 PM 39.8892 -84.3181 271° West 178 205 3,700 1,714 Climbing Indianapolis Center
Fri 07:51:35 PM 39.9111 -84.3864 293° West 210 242 5,600 1,902 Climbing Indianapolis Center
Fri 07:52:00 PM 40.0994 -84.3994 323° Northwest  Level FlightAware Approximate
Fri 07:52:36 PM 39.9719 -84.4314 330° Northwest 245 282 7,600  Level Indianapolis Center
Fri 07:53:00 PM 40.1570 -84.4654 327° Northwest  Level FlightAware Approximate
Fri 07:53:38 PM 40.0350 -84.4739 333° Northwest 254 292 9,600  Level Indianapolis Center
Fri 07:54:00 PM 40.2252 -84.5241 326° Northwest  Level FlightAware Approximate
Fri 07:54:39 PM 40.0992 -84.5236 329° Northwest 261 300 11,300  Level Indianapolis Center
Fri 07:55:41 PM 40.1722 -84.5758 331° Northwest 284 327 12,600 1,220 Climbing Indianapolis Center
Fri 07:56:42 PM 40.2503 -84.6344 330° Northwest 311 358 13,800 1,122 Climbing Indianapolis Center
Fri 07:57:44 PM 40.3331 -84.6950 331° Northwest 333 383 14,900 1,073 Climbing Indianapolis Center
Fri 07:58:45 PM 40.4189 -84.7597 330° Northwest 348 400 16,000 1,122 Climbing Indianapolis Center
Fri 07:59:47 PM 40.5061 -84.8256 330° Northwest 356 410 17,200 1,171 Climbing Indianapolis Center
Fri 08:00:48 PM 40.5947 -84.8936 330° Northwest 364 419 18,400 1,256 Climbing Indianapolis Center
Fri 08:01:13 PM 40.6372 -84.9244 331° Northwest 363 418 19,000 1,241 Climbing Chicago Center
Fri 08:02:15 PM 40.7203 -85.0081 323° Northwest 370 426 20,200 1,161 Climbing Chicago Center
Fri 08:03:17 PM 40.7864 -85.1108 310° West 368 423 21,400 871 Climbing Chicago Center
Fri 08:04:19 PM 40.8536 -85.2128 311° West 368 423 22,000 290 Climbing Chicago Center
Fri 08:05:21 PM 40.9256 -85.3239 311° West 385 443 22,000  Level Chicago Center
Fri 08:06:23 PM 41.0008 -85.4383 311° West 405 466 22,000  Level Chicago Center
Fri 08:07:25 PM 41.0903 -85.5792 310° West 414 476 22,000  Level Chicago Center
Fri 08:08:27 PM 41.1386 -85.7092 296° West 394 453 22,000  Level Chicago Center
Fri 08:09:29 PM 41.1772 -85.8394 292° West 382 440 22,000  Level Chicago Center
Fri 08:10:31 PM 41.2158 -85.9722 291° West 382 440 22,000  Level Chicago Center
Fri 08:11:33 PM 41.2578 -86.1100 292° West 397 457 22,000  Level Chicago Center
Fri 08:12:35 PM 41.2975 -86.2508 291° West 405 466 22,000  Level Chicago Center
Fri 08:13:37 PM 41.3386 -86.3917 291° West 407 468 22,000 -387 Level Chicago Center
Fri 08:14:39 PM 41.3861 -86.5547 291° West 396 456 21,200 -1,306 Descending Chicago Center
Fri 08:15:41 PM 41.4242 -86.6858 291° West 384 442 19,300 -1,887 Descending Chicago Center
Fri 08:16:43 PM 41.4633 -86.8261 290° West 381 438 17,300 -1,839 Descending Chicago Center
Fri 08:17:45 PM 41.5003 -86.9531 291° West 371 427 15,500 -1,790 Descending Chicago Center
Fri 08:18:47 PM 41.5336 -87.0744 290° West 355 409 13,600 -1,694 Descending Chicago Center
Fri 08:19:49 PM 41.5686 -87.1983 291° West 357 411 12,000 -1,019 Descending Chicago Center
Fri 08:20:33 PM 41.6167 -87.2833 307° West 347 399 11,800 -581 Descending Chicago TRACON
Fri 08:20:51 PM 41.6308 -87.3256 294° West 345 397 11,400 -1,200 Descending Chicago Center
Fri 08:21:53 PM 41.6897 -87.4233 309° West 342 394 10,200 -677 Descending Chicago Center
Fri 08:22:55 PM 41.7478 -87.5186 309° West 337 388 10,000 -194 Descending Chicago Center
Fri 08:23:57 PM 41.8011 -87.6078 309° West 312 359 9,800 -551 Descending Chicago Center
Fri 08:24:33 PM 41.8167 -87.6667 290° West 270 311 9,100 -1,125 Descending Chicago TRACON
Fri 08:25:33 PM 41.8167 -87.7667 270° West 262 302 8,000 -1,100 Descending Chicago TRACON
Fri 08:26:33 PM 41.8000 -87.8500 255° West 237 273 6,900 -1,133 Descending Chicago TRACON
Fri 08:27:03 PM 41.8006 -87.8958 271° West 242 278 6,300 -1,109 Descending Chicago Center
Fri 08:28:05 PM 41.7931 -87.9781 263° West 234 269 5,200 -968 Descending Chicago Center
Fri 08:29:07 PM 41.8019 -88.0453 280° West 210 242 4,300 -677 Descending Chicago Center
Fri 08:30:09 PM 41.8392 -88.0353 11° North 187 215 3,800 -871 Descending Chicago Center
Fri 08:31:11 PM 41.8822 -87.9844 41° Northeast 177 204 2,500 -1,258 Descending Chicago Center

Login

Don't have an account? Register now (free) for customized features, flight alerts, and more!